Terminal Aerodrome Forecast
Issued by NWS

Home | Current Version | Previous Version | Text Only | Print | Product List | Glossary Off
Versions: 1 2 3 4 5 6 7 8 9 10 11 12 13 14 15 16

306
FTUS43 KMPX 202340
TAFRNH
TAF
KRNH 202340Z 2100/2124 08012G18KT 3SM -DZ BR SCT008 OVC012
     FM210400 09008KT 2SM -DZ BR OVC007
     FM211000 15006KT 1SM -DZ BR OVC005
     FM211600 26009KT P6SM OVC008
     FM212000 28012G19KT P6SM SCT008 OVC012=

USA.gov is the U.S. government's official web portal to all federal, state and local government web resources and services.